Time;durP1;ratioP1;P1;durP2;ratioP2;P2;SDS_P1;SDS_P2;PMS_P1;PMS_P2;Temp;Humidity;BMP_temperature;BMP_pressure;BME280_temperature;BME280_humidity;BME280_pressure;Samples;Min_cycle;Max_cycle;Signal;HPM_P1;HPM_P2
2023/02/22 00:06:38;;;;;;;;;;;8.40;99.90;;;;;;6236056;23;19910;-81
2023/02/22 00:18:48;;;;;;;;;;;8.40;99.90;;;;;;6187206;23;19904;-82
2023/02/22 00:30:36;;;;;;;;;;;8.30;99.90;;;;;;6187579;23;19912;-81
2023/02/22 00:33:39;;;;;;;;;;;8.30;99.90;;;;;;6187150;23;19904;-80
2023/02/22 00:43:04;;;;;;;;;;;8.40;99.90;;;;;;6221054;23;19912;-81
2023/02/22 00:52:08;;;;;;;;;;;;;;;;;;;;;
2023/02/22 01:03:36;;;;;;;;;;;8.30;99.90;;;;;;6229467;22;19923;-81
2023/02/22 01:06:38;;;;;;;;;;;8.40;99.90;;;;;;6277273;22;19907;-80
2023/02/22 01:09:28;;;;;;;;;;;8.40;99.90;;;;;;6215400;23;19915;-80
2023/02/22 01:18:12;;;;;;;;;;;8.30;99.90;;;;;;6293180;22;20284;-80
2023/02/22 01:29:55;;;;;;;;;;;8.20;99.90;;;;;;6158292;23;19904;-80
2023/02/22 01:39:22;;;;;;;;;;;8.20;99.90;;;;;;6065234;23;19969;-80
2023/02/22 01:45:39;;;;;;;;;;;8.20;99.90;;;;;;5991612;23;19907;-81
2023/02/22 01:51:37;;;;;;;;;;;8.30;99.90;;;;;;6126137;23;19905;-81
2023/02/22 02:00:39;;;;;;;;;;;8.20;99.90;;;;;;6126383;23;20244;-80
2023/02/22 02:56:43;;;;;;;;;;;7.70;99.90;;;;;;6139728;23;19921;-80
2023/02/22 03:02:45;;;;;;;;;;;7.70;99.90;;;;;;6125212;23;19970;-81
2023/02/22 03:05:32;;;;;;;;;;;7.70;99.90;;;;;;6244454;23;19995;-80
2023/02/22 03:08:28;;;;;;;;;;;7.80;99.90;;;;;;6219782;23;19907;-79
2023/02/22 03:18:05;;;;;;;;;;;;;;;;;;;;;
2023/02/22 03:23:57;;;;;;;;;;;8.00;99.90;;;;;;6114596;23;19925;-85
2023/02/22 03:26:34;;;;;;;;;;;8.00;99.90;;;;;;6223721;23;19980;-85
2023/02/22 03:29:03;;;;;;;;;;;8.00;99.90;;;;;;6248864;22;19905;-85
2023/02/22 03:31:31;;;;;;;;;;;8.00;99.90;;;;;;6248346;22;20329;-86
2023/02/22 03:34:00;;;;;;;;;;;8.00;99.90;;;;;;6249030;22;19909;-86
2023/02/22 03:36:33;;;;;;;;;;;8.00;99.90;;;;;;6222841;23;19962;-85
2023/02/22 03:39:00;;;;;;;;;;;8.00;99.90;;;;;;6222806;23;19963;-84
2023/02/22 03:41:27;;;;;;;;;;;8.00;99.90;;;;;;6222327;23;20477;-85
2023/02/22 03:44:12;;;;;;;;;;;7.90;99.90;;;;;;6223509;23;19905;-85
2023/02/22 03:46:39;;;;;;;;;;;7.90;99.90;;;;;;6121809;23;20333;-85
2023/02/22 03:49:07;;;;;;;;;;;7.90;99.90;;;;;;6223515;23;19925;-84
2023/02/22 03:51:33;;;;;;;;;;;7.90;99.90;;;;;;6222896;23;19976;-85
2023/02/22 03:53:58;;;;;;;;;;;7.90;99.90;;;;;;6121647;23;19921;-85
2023/02/22 03:56:34;;;;;;;;;;;7.90;99.90;;;;;;6223492;23;19952;-86
2023/02/22 03:59:04;;;;;;;;;;;8.00;99.90;;;;;;6121538;23;19984;-85
2023/02/22 04:01:30;;;;;;;;;;;8.00;99.90;;;;;;6121125;23;19905;-85
2023/02/22 04:03:55;;;;;;;;;;;8.00;99.90;;;;;;6223421;23;19927;-85
2023/02/22 04:06:21;;;;;;;;;;;8.00;99.90;;;;;;6121485;23;20287;-85
2023/02/22 04:08:46;;;;;;;;;;;8.10;99.90;;;;;;6223104;23;19912;-85
2023/02/22 04:11:12;;;;;;;;;;;8.10;99.90;;;;;;6222792;23;19944;-85
2023/02/22 04:13:38;;;;;;;;;;;8.00;99.90;;;;;;6121409;23;19964;-85
2023/02/22 04:16:03;;;;;;;;;;;8.00;99.90;;;;;;6223102;23;19916;-85
2023/02/22 04:18:29;;;;;;;;;;;8.10;99.90;;;;;;6222552;23;19905;-85
2023/02/22 04:20:54;;;;;;;;;;;8.10;99.90;;;;;;6223077;23;19983;-85
2023/02/22 04:23:20;;;;;;;;;;;8.10;99.90;;;;;;6121107;23;19913;-86
2023/02/22 04:25:46;;;;;;;;;;;8.10;99.90;;;;;;6121298;23;19906;-84
2023/02/22 04:28:11;;;;;;;;;;;8.10;99.90;;;;;;6121226;23;19952;-85
2023/02/22 04:30:37;;;;;;;;;;;8.00;99.90;;;;;;6121646;23;19916;-85
2023/02/22 04:33:03;;;;;;;;;;;7.90;99.90;;;;;;6222827;23;20406;-85
2023/02/22 04:35:28;;;;;;;;;;;8.00;99.90;;;;;;6222766;23;19913;-85
2023/02/22 04:37:54;;;;;;;;;;;8.10;99.90;;;;;;6223426;23;19912;-85
2023/02/22 04:40:20;;;;;;;;;;;8.10;99.90;;;;;;6222690;23;20244;-84
2023/02/22 04:42:45;;;;;;;;;;;8.10;99.90;;;;;;6120807;23;19905;-86
2023/02/22 04:45:11;;;;;;;;;;;8.10;99.90;;;;;;6222600;23;20293;-86
2023/02/22 04:47:36;;;;;;;;;;;8.10;99.90;;;;;;6223103;23;19987;-86
2023/02/22 04:50:03;;;;;;;;;;;8.10;99.90;;;;;;6223665;23;19920;-85
2023/02/22 04:52:29;;;;;;;;;;;8.10;99.90;;;;;;6121805;23;19904;-85
2023/02/22 04:54:54;;;;;;;;;;;8.10;99.90;;;;;;6224431;23;19948;-85
2023/02/22 04:57:20;;;;;;;;;;;8.10;99.90;;;;;;6224749;23;19912;-85
2023/02/22 04:59:45;;;;;;;;;;;8.10;99.90;;;;;;6224701;23;19905;-85
2023/02/22 05:02:11;;;;;;;;;;;8.10;99.90;;;;;;6224014;23;19905;-85
2023/02/22 05:04:37;;;;;;;;;;;8.10;99.90;;;;;;6122178;23;19909;-85
2023/02/22 05:07:02;;;;;;;;;;;8.00;99.90;;;;;;6224811;23;19909;-85
2023/02/22 05:09:28;;;;;;;;;;;8.10;99.90;;;;;;6224530;23;19940;-85
2023/02/22 05:11:53;;;;;;;;;;;8.10;99.90;;;;;;6224415;23;19905;-86
2023/02/22 05:14:19;;;;;;;;;;;8.00;99.90;;;;;;6224736;23;20378;-85
2023/02/22 05:16:44;;;;;;;;;;;8.00;99.90;;;;;;6122341;23;19909;-85
2023/02/22 05:19:10;;;;;;;;;;;7.80;99.90;;;;;;6224736;23;19944;-84
2023/02/22 05:21:35;;;;;;;;;;;7.80;99.90;;;;;;6224120;23;19984;-85
2023/02/22 05:24:01;;;;;;;;;;;7.70;99.90;;;;;;6224607;23;19909;-85
2023/02/22 05:26:26;;;;;;;;;;;7.60;99.90;;;;;;6225237;23;19905;-85
2023/02/22 05:28:52;;;;;;;;;;;7.60;99.90;;;;;;6224909;23;19905;-86
2023/02/22 05:31:17;;;;;;;;;;;7.60;99.90;;;;;;6224122;23;19912;-86
2023/02/22 05:33:43;;;;;;;;;;;7.70;99.90;;;;;;6224478;23;20382;-84
2023/02/22 05:36:08;;;;;;;;;;;7.70;99.90;;;;;;6224295;23;19909;-85
2023/02/22 05:38:41;;;;;;;;;;;7.70;99.90;;;;;;6122129;23;20363;-85
2023/02/22 05:41:08;;;;;;;;;;;7.70;99.90;;;;;;6223942;23;20325;-85
2023/02/22 05:43:34;;;;;;;;;;;7.70;99.90;;;;;;6223999;23;19905;-85
2023/02/22 05:45:59;;;;;;;;;;;7.70;99.90;;;;;;6249646;22;19936;-85
2023/02/22 05:48:24;;;;;;;;;;;7.70;99.90;;;;;;6224488;23;20333;-85
2023/02/22 05:50:50;;;;;;;;;;;7.70;99.90;;;;;;6224375;23;19912;-84
2023/02/22 05:53:15;;;;;;;;;;;7.60;99.90;;;;;;6223829;23;19905;-85
2023/02/22 05:55:41;;;;;;;;;;;7.60;99.90;;;;;;6224621;23;20303;-85
2023/02/22 05:58:06;;;;;;;;;;;7.60;99.90;;;;;;6224485;23;19905;-86
2023/02/22 06:00:32;;;;;;;;;;;7.60;99.90;;;;;;6223817;23;20225;-85
2023/02/22 06:02:58;;;;;;;;;;;7.60;99.90;;;;;;6223550;23;19916;-85
2023/02/22 06:05:24;;;;;;;;;;;7.50;99.90;;;;;;6224326;23;19928;-85
2023/02/22 06:07:49;;;;;;;;;;;7.50;99.90;;;;;;6224321;23;19940;-86
2023/02/22 06:10:15;;;;;;;;;;;7.50;99.90;;;;;;6224143;23;19994;-84
2023/02/22 06:12:47;;;;;;;;;;;7.40;99.90;;;;;;6121621;23;19980;-86
2023/02/22 06:15:13;;;;;;;;;;;7.40;99.90;;;;;;6122084;23;19909;-86
2023/02/22 06:17:40;;;;;;;;;;;7.30;99.90;;;;;;6223851;23;19912;-85
2023/02/22 06:20:07;;;;;;;;;;;7.30;99.90;;;;;;6249779;22;19925;-85
2023/02/22 06:22:32;;;;;;;;;;;7.30;99.90;;;;;;6223203;23;19920;-85
2023/02/22 06:24:57;;;;;;;;;;;7.30;99.90;;;;;;6249560;22;19913;-85
2023/02/22 06:27:23;;;;;;;;;;;7.20;99.90;;;;;;6224188;23;19912;-86
2023/02/22 06:29:48;;;;;;;;;;;7.20;99.90;;;;;;6224035;23;19920;-85
2023/02/22 06:32:14;;;;;;;;;;;7.20;99.90;;;;;;6248800;22;19959;-85
2023/02/22 06:34:42;;;;;;;;;;;7.20;99.90;;;;;;6223890;23;20532;-85
2023/02/22 06:37:08;;;;;;;;;;;7.10;99.90;;;;;;6223848;23;19909;-84
2023/02/22 06:39:33;;;;;;;;;;;7.10;99.90;;;;;;6121844;23;20297;-84
2023/02/22 06:41:59;;;;;;;;;;;7.00;99.90;;;;;;6121625;23;19936;-85
2023/02/22 06:44:24;;;;;;;;;;;7.00;99.90;;;;;;6224201;23;19905;-85
2023/02/22 06:46:50;;;;;;;;;;;7.00;99.90;;;;;;6223649;23;20521;-85
2023/02/22 06:49:16;;;;;;;;;;;7.00;99.90;;;;;;6223724;23;19905;-85
2023/02/22 06:51:42;;;;;;;;;;;7.10;99.90;;;;;;6248627;22;20218;-84
2023/02/22 06:54:07;;;;;;;;;;;7.10;99.90;;;;;;6223548;23;19916;-85
2023/02/22 06:56:33;;;;;;;;;;;7.00;99.90;;;;;;6249425;22;19916;-85
2023/02/22 06:59:00;;;;;;;;;;;7.10;99.90;;;;;;6224078;23;19988;-85
2023/02/22 07:01:26;;;;;;;;;;;7.00;99.90;;;;;;6248453;22;19979;-86
2023/02/22 07:03:52;;;;;;;;;;;7.00;99.90;;;;;;6224043;23;19956;-85
2023/02/22 07:06:17;;;;;;;;;;;7.00;99.90;;;;;;6223686;23;19909;-85
2023/02/22 07:08:43;;;;;;;;;;;7.00;99.90;;;;;;6121968;23;20231;-85
2023/02/22 07:11:08;;;;;;;;;;;7.00;99.90;;;;;;6223263;23;19959;-85
2023/02/22 07:13:34;;;;;;;;;;;7.00;99.90;;;;;;6223287;23;19940;-85
2023/02/22 07:15:59;;;;;;;;;;;7.10;99.90;;;;;;6122396;23;19962;-85
2023/02/22 07:18:25;;;;;;;;;;;7.10;99.90;;;;;;6121866;23;19909;-86
2023/02/22 07:20:50;;;;;;;;;;;7.10;99.90;;;;;;6223432;23;20347;-86
2023/02/22 07:23:16;;;;;;;;;;;7.20;99.90;;;;;;6222949;23;20027;-84
2023/02/22 07:25:42;;;;;;;;;;;7.20;99.90;;;;;;6121770;23;19905;-85
2023/02/22 07:28:09;;;;;;;;;;;7.20;99.90;;;;;;6223287;23;19947;-85
2023/02/22 07:30:35;;;;;;;;;;;7.30;99.90;;;;;;6121852;23;19905;-85
2023/02/22 07:33:05;;;;;;;;;;;7.40;99.90;;;;;;6223365;23;19996;-85
2023/02/22 07:35:32;;;;;;;;;;;7.40;99.90;;;;;;6227840;23;19909;-84
2023/02/22 07:37:58;;;;;;;;;;;7.40;99.90;;;;;;6127037;23;19909;-85
2023/02/22 07:40:24;;;;;;;;;;;7.40;98.80;;;;;;6229257;23;19912;-85
2023/02/22 07:42:54;;;;;;;;;;;7.50;99.80;;;;;;6229113;23;20325;-85
2023/02/22 07:45:20;;;;;;;;;;;7.50;99.50;;;;;;6228776;23;20325;-84
2023/02/22 07:47:47;;;;;;;;;;;7.60;96.80;;;;;;6228638;23;19905;-84
2023/02/22 07:50:13;;;;;;;;;;;7.60;96.30;;;;;;6126953;23;19912;-85
2023/02/22 07:52:44;;;;;;;;;;;7.70;96.90;;;;;;6202521;23;21904;-85
2023/02/22 07:55:09;;;;;;;;;;;7.70;97.80;;;;;;6228564;23;19931;-84
2023/02/22 07:57:35;;;;;;;;;;;7.80;97.70;;;;;;6227879;23;19905;-85
2023/02/22 08:00:00;;;;;;;;;;;7.90;93.80;;;;;;6227950;23;20312;-85
2023/02/22 08:02:26;;;;;;;;;;;8.00;91.50;;;;;;6227437;23;19905;-85
2023/02/22 08:04:51;;;;;;;;;;;8.00;89.70;;;;;;6228370;23;19905;-84
2023/02/22 08:07:17;;;;;;;;;;;8.10;87.00;;;;;;6228279;23;20336;-84
2023/02/22 08:09:42;;;;;;;;;;;8.20;88.00;;;;;;6227793;23;19932;-85
2023/02/22 08:12:08;;;;;;;;;;;8.30;84.30;;;;;;6227384;23;20252;-85
2023/02/22 08:14:33;;;;;;;;;;;8.40;66.80;;;;;;6228025;23;19955;-85
2023/02/22 08:16:59;;;;;;;;;;;8.40;56.40;;;;;;6227788;23;19947;-85
2023/02/22 08:19:24;;;;;;;;;;;8.40;54.60;;;;;;6227435;23;19955;-85
2023/02/22 08:21:50;;;;;;;;;;;8.50;55.70;;;;;;6227176;23;19909;-85
2023/02/22 08:24:15;;;;;;;;;;;8.60;62.80;;;;;;6100731;23;19912;-85
2023/02/22 08:26:44;;;;;;;;;;;8.80;62.20;;;;;;6101708;23;20004;-84
2023/02/22 08:29:10;;;;;;;;;;;8.90;50.60;;;;;;6101833;23;19944;-84
2023/02/22 08:31:35;;;;;;;;;;;9.00;41.80;;;;;;6101261;23;19905;-85
2023/02/22 08:34:00;;;;;;;;;;;9.10;38.30;;;;;;6101713;23;19905;-85
2023/02/22 08:36:28;;;;;;;;;;;9.30;35.80;;;;;;6101487;23;19916;-85
2023/02/22 08:38:53;;;;;;;;;;;9.30;17.30;;;;;;6102138;23;20342;-85
2023/02/22 08:41:19;;;;;;;;;;;9.40;22.40;;;;;;6100744;23;19911;-85
2023/02/22 08:43:44;;;;;;;;;;;9.60;17.00;;;;;;6127371;23;19905;-85
2023/02/22 08:46:10;;;;;;;;;;;9.80;15.30;;;;;;6126988;23;19953;-85
2023/02/22 08:48:35;;;;;;;;;;;9.90;5.90;;;;;;6100953;23;20335;-85
2023/02/22 08:51:01;;;;;;;;;;;10.00;1.00;;;;;;6099822;23;19937;-85
2023/02/22 08:53:26;;;;;;;;;;;9.90;1.00;;;;;;6100437;23;19927;-85
2023/02/22 08:55:52;;;;;;;;;;;10.10;1.00;;;;;;6101355;23;19909;-85
2023/02/22 08:58:20;;;;;;;;;;;10.20;1.00;;;;;;6101393;23;20389;-85
2023/02/22 09:00:46;;;;;;;;;;;10.30;1.00;;;;;;6101215;23;19913;-85
2023/02/22 09:03:12;;;;;;;;;;;10.40;1.00;;;;;;6124659;23;19905;-85
2023/02/22 09:05:43;;;;;;;;;;;10.50;1.00;;;;;;6100951;23;19908;-85
2023/02/22 09:08:09;;;;;;;;;;;10.70;1.00;;;;;;6100300;23;19905;-85
2023/02/22 09:10:35;;;;;;;;;;;10.70;1.00;;;;;;6101375;23;19905;-85
2023/02/22 09:13:01;;;;;;;;;;;10.80;1.00;;;;;;6100526;23;20323;-86
2023/02/22 09:15:26;;;;;;;;;;;10.90;1.00;;;;;;6125926;23;19909;-85
2023/02/22 09:17:52;;;;;;;;;;;11.00;1.00;;;;;;6101565;23;19905;-85
2023/02/22 09:20:18;;;;;;;;;;;11.20;1.00;;;;;;6101420;23;19916;-85
2023/02/22 09:28:30;;;;;;;;;;;11.50;1.00;;;;;;6233167;22;19982;-80
2023/02/22 09:31:43;;;;;;;;;;;;;;;;;;;;;
2023/02/22 09:34:18;;;;;;;;;;;11.70;1.00;;;;;;6203903;22;20442;-79
2023/02/22 09:36:45;;;;;;;;;;;11.80;1.00;;;;;;6246775;23;19911;-78
2023/02/22 09:39:11;;;;;;;;;;;11.80;1.00;;;;;;6223425;23;19939;-78
2023/02/22 09:41:40;;;;;;;;;;;11.80;1.00;;;;;;6223163;23;19907;-78
2023/02/22 09:56:28;;;;;;;;;;;12.20;1.00;;;;;;6143483;23;20344;-81
2023/02/22 10:14:48;;;;;;;;;;;13.20;99.90;;;;;;6148055;23;19965;-81
2023/02/22 10:17:26;;;;;;;;;;;13.50;1.00;;;;;;6151081;23;20000;-79
2023/02/22 10:28:12;;;;;;;;;;;13.70;1.00;;;;;;6123672;22;19921;-79
2023/02/22 10:30:53;;;;;;;;;;;13.90;1.00;;;;;;6121949;23;19912;-79
2023/02/22 10:33:25;;;;;;;;;;;14.00;28.60;;;;;;6120776;23;19905;-79
2023/02/22 10:36:06;;;;;;;;;;;14.00;1.00;;;;;;6122246;23;19913;-79
2023/02/22 10:38:35;;;;;;;;;;;14.00;99.90;;;;;;6123253;23;19992;-80
2023/02/22 10:44:25;;;;;;;;;;;14.60;99.90;;;;;;6133458;23;20475;-80
2023/02/22 10:46:52;;;;;;;;;;;14.90;99.90;;;;;;6124283;23;20345;-79
2023/02/22 10:52:45;;;;;;;;;;;;;;;;;;;;;
2023/02/22 10:58:41;;;;;;;;;;;18.50;65.80;;;;;;6127022;23;19909;-81
2023/02/22 11:01:30;;;;;;;;;;;20.40;1.00;;;;;;6121225;23;20321;-82
2023/02/22 11:07:43;;;;;;;;;;;23.20;1.00;;;;;;6151965;23;19919;-82
2023/02/22 11:10:09;;;;;;;;;;;24.60;1.00;;;;;;6128753;23;19905;-84
2023/02/22 11:12:36;;;;;;;;;;;24.90;1.00;;;;;;6122517;23;20335;-83
2023/02/22 11:15:22;;;;;;;;;;;24.70;1.00;;;;;;6124590;23;19905;-82
2023/02/22 11:17:49;;;;;;;;;;;24.50;1.00;;;;;;6097974;23;19992;-85
2023/02/22 11:20:24;;;;;;;;;;;24.60;1.00;;;;;;6095670;23;20567;-83
2023/02/22 11:22:57;;;;;;;;;;;24.80;1.00;;;;;;6095818;23;20282;-83
2023/02/22 11:25:29;;;;;;;;;;;24.40;1.00;;;;;;6095785;23;19912;-83
2023/02/22 11:28:05;;;;;;;;;;;24.30;1.00;;;;;;6225634;23;19911;-86
2023/02/22 11:30:33;;;;;;;;;;;24.90;1.00;;;;;;6244143;23;20212;-87
2023/02/22 11:33:15;;;;;;;;;;;25.10;1.00;;;;;;6243508;22;19904;-86
2023/02/22 11:35:53;;;;;;;;;;;26.10;1.00;;;;;;6269685;22;19917;-85
2023/02/22 11:38:27;;;;;;;;;;;27.60;1.00;;;;;;6243898;23;19987;-85
2023/02/22 11:41:04;;;;;;;;;;;28.30;1.00;;;;;;6245562;22;20354;-85
2023/02/22 11:43:30;;;;;;;;;;;29.10;1.00;;;;;;6243080;22;20270;-85
2023/02/22 11:46:02;;;;;;;;;;;29.50;1.00;;;;;;6268656;22;19910;-85
2023/02/22 11:48:29;;;;;;;;;;;29.60;1.00;;;;;;6245428;22;19905;-84
2023/02/22 11:50:55;;;;;;;;;;;29.80;1.00;;;;;;6245308;22;19907;-84
2023/02/22 11:53:24;;;;;;;;;;;30.40;1.00;;;;;;6243628;22;19978;-85
2023/02/22 11:55:49;;;;;;;;;;;30.70;1.00;;;;;;6243950;23;20319;-85
2023/02/22 11:58:27;;;;;;;;;;;30.70;1.00;;;;;;6244944;23;19910;-84
2023/02/22 12:00:55;;;;;;;;;;;29.60;1.00;;;;;;6243668;23;19911;-83
2023/02/22 12:03:31;;;;;;;;;;;28.70;1.00;;;;;;6243919;22;19910;-84
2023/02/22 12:06:00;;;;;;;;;;;27.90;1.00;;;;;;6245687;23;19904;-83
2023/02/22 12:08:55;;;;;;;;;;;27.40;1.00;;;;;;6247484;22;19911;-84
2023/02/22 12:11:40;;;;;;;;;;;27.20;1.00;;;;;;6218793;23;19908;-84
2023/02/22 12:14:11;;;;;;;;;;;26.90;1.00;;;;;;6246936;22;19904;-85
2023/02/22 12:16:56;;;;;;;;;;;27.20;1.00;;;;;;6245460;23;19911;-84
2023/02/22 12:19:31;;;;;;;;;;;27.70;1.00;;;;;;6270381;22;20358;-84
2023/02/22 12:22:01;;;;;;;;;;;28.20;1.00;;;;;;6244994;23;19971;-85
2023/02/22 12:24:34;;;;;;;;;;;28.20;1.00;;;;;;6242568;22;19903;-84
2023/02/22 12:27:02;;;;;;;;;;;28.00;1.00;;;;;;6242508;23;19911;-84
2023/02/22 12:29:56;;;;;;;;;;;27.50;1.00;;;;;;6243252;23;19965;-84
2023/02/22 12:32:28;;;;;;;;;;;27.00;1.00;;;;;;6240561;23;20326;-84
2023/02/22 12:34:59;;;;;;;;;;;26.50;1.00;;;;;;6243175;22;19926;-84
2023/02/22 12:37:26;;;;;;;;;;;26.00;1.00;;;;;;6243382;23;19911;-84
2023/02/22 12:40:08;;;;;;;;;;;26.20;1.00;;;;;;6245050;22;19998;-84
2023/02/22 12:42:42;;;;;;;;;;;26.20;1.00;;;;;;6243403;23;19911;-82
2023/02/22 12:45:31;;;;;;;;;;;25.90;1.00;;;;;;6245037;23;20349;-82
2023/02/22 12:48:09;;;;;;;;;;;25.30;1.00;;;;;;6227767;23;19904;-82
2023/02/22 12:50:36;;;;;;;;;;;24.60;1.00;;;;;;6243483;23;19903;-82
2023/02/22 12:53:15;;;;;;;;;;;24.00;1.00;;;;;;6241141;22;19911;-83
2023/02/22 12:55:44;;;;;;;;;;;23.80;1.00;;;;;;6245230;22;20319;-81
2023/02/22 12:58:20;;;;;;;;;;;23.80;1.00;;;;;;6245011;22;19904;-83
2023/02/22 13:01:06;;;;;;;;;;;23.70;1.00;;;;;;6245558;22;19904;-81
2023/02/22 13:03:39;;;;;;;;;;;23.70;1.00;;;;;;6242994;22;20353;-81
2023/02/22 13:06:17;;;;;;;;;;;23.40;1.00;;;;;;6243463;23;19907;-80
2023/02/22 13:08:59;;;;;;;;;;;23.20;1.00;;;;;;6245187;23;19911;-80
2023/02/22 13:11:43;;;;;;;;;;;23.20;1.00;;;;;;6243984;23;19904;-80
2023/02/22 13:14:21;;;;;;;;;;;23.20;1.00;;;;;;6245552;22;19904;-81
2023/02/22 13:16:57;;;;;;;;;;;23.00;1.00;;;;;;6247197;23;20350;-82
2023/02/22 13:19:28;;;;;;;;;;;22.80;1.00;;;;;;6247209;22;19997;-81
2023/02/22 13:21:58;;;;;;;;;;;23.00;1.00;;;;;;6245072;23;19935;-83
2023/02/22 13:24:29;;;;;;;;;;;23.10;1.00;;;;;;6245686;22;20469;-80
2023/02/22 13:26:54;;;;;;;;;;;23.30;1.00;;;;;;6245377;23;19911;-80
2023/02/22 13:29:28;;;;;;;;;;;23.40;1.00;;;;;;6245279;23;19950;-81
2023/02/22 13:32:12;;;;;;;;;;;23.80;1.00;;;;;;6245274;23;19930;-81
2023/02/22 13:34:50;;;;;;;;;;;24.30;1.00;;;;;;6244971;22;19904;-80
2023/02/22 13:37:34;;;;;;;;;;;24.90;1.00;;;;;;6245188;23;19986;-81
2023/02/22 13:40:15;;;;;;;;;;;25.60;1.00;;;;;;6244812;23;19954;-81
2023/02/22 13:42:50;;;;;;;;;;;25.90;1.00;;;;;;6246859;22;19904;-81
2023/02/22 13:45:27;;;;;;;;;;;25.40;1.00;;;;;;6244980;23;19978;-81
2023/02/22 13:48:02;;;;;;;;;;;25.00;1.00;;;;;;6247419;22;19908;-81
2023/02/22 13:50:46;;;;;;;;;;;24.60;1.00;;;;;;6270401;22;19903;-82
2023/02/22 13:53:15;;;;;;;;;;;24.00;1.00;;;;;;6244902;22;19903;-82
2023/02/22 13:55:45;;;;;;;;;;;23.30;1.00;;;;;;6245264;23;19908;-81
2023/02/22 13:58:11;;;;;;;;;;;23.00;1.00;;;;;;6244739;23;19904;-81
2023/02/22 14:00:39;;;;;;;;;;;22.90;1.00;;;;;;6245354;23;19904;-81
2023/02/22 14:03:11;;;;;;;;;;;22.80;1.00;;;;;;6244729;22;20239;-81
2023/02/22 14:05:48;;;;;;;;;;;22.70;1.00;;;;;;6245340;23;20250;-80
2023/02/22 14:08:34;;;;;;;;;;;22.70;1.00;;;;;;6247759;22;19950;-81
2023/02/22 14:11:00;;;;;;;;;;;22.60;1.00;;;;;;6246567;23;19904;-80
2023/02/22 14:13:26;;;;;;;;;;;22.50;1.00;;;;;;6270953;22;19949;-81
2023/02/22 14:16:01;;;;;;;;;;;22.50;1.00;;;;;;6245890;23;19986;-81
2023/02/22 14:18:29;;;;;;;;;;;22.70;1.00;;;;;;6245233;23;19910;-81
2023/02/22 14:21:09;;;;;;;;;;;23.10;1.00;;;;;;6245958;23;20290;-81
2023/02/22 14:23:34;;;;;;;;;;;23.80;1.00;;;;;;6254678;22;19908;-81
2023/02/22 14:26:23;;;;;;;;;;;24.50;1.00;;;;;;6251585;22;19908;-82
2023/02/22 14:28:53;;;;;;;;;;;25.20;1.00;;;;;;6229744;23;19893;-82
2023/02/22 14:31:24;;;;;;;;;;;26.00;1.00;;;;;;6244108;23;19896;-81
2023/02/22 14:43:00;;;;;;;;;;;27.20;1.00;;;;;;6121847;23;19954;-82
2023/02/22 14:45:48;;;;;;;;;;;27.20;1.00;;;;;;6197905;23;19913;-83
2023/02/22 14:48:23;;;;;;;;;;;27.20;1.00;;;;;;6198060;23;20326;-83
2023/02/22 14:50:55;;;;;;;;;;;26.80;1.00;;;;;;6197660;23;20249;-82
2023/02/22 14:53:24;;;;;;;;;;;26.60;1.00;;;;;;6096715;23;20318;-82
2023/02/22 14:55:55;;;;;;;;;;;26.20;1.00;;;;;;6096834;23;19988;-82
2023/02/22 14:58:24;;;;;;;;;;;25.70;1.00;;;;;;6096069;23;19909;-82
2023/02/22 15:00:51;;;;;;;;;;;25.10;1.00;;;;;;6095937;23;19912;-81
2023/02/22 15:03:24;;;;;;;;;;;24.50;1.00;;;;;;6096170;23;19909;-82
2023/02/22 15:05:49;;;;;;;;;;;24.00;1.00;;;;;;6197069;23;19912;-82
2023/02/22 15:08:16;;;;;;;;;;;23.50;1.00;;;;;;6197005;23;19932;-80
2023/02/22 15:10:44;;;;;;;;;;;23.10;1.00;;;;;;6196913;23;19909;-82
2023/02/22 15:13:15;;;;;;;;;;;22.70;1.00;;;;;;6196681;23;20374;-82
2023/02/22 15:15:44;;;;;;;;;;;22.30;1.00;;;;;;6197171;23;19910;-81
2023/02/22 15:18:28;;;;;;;;;;;22.00;1.00;;;;;;6197017;23;19905;-82
2023/02/22 15:21:01;;;;;;;;;;;21.70;1.00;;;;;;6196491;23;19948;-82
2023/02/22 15:23:32;;;;;;;;;;;21.40;1.00;;;;;;6196566;23;20288;-81
2023/02/22 15:25:57;;;;;;;;;;;21.10;1.00;;;;;;6096355;23;20367;-82
2023/02/22 15:28:26;;;;;;;;;;;20.70;1.00;;;;;;6196327;23;19905;-80
2023/02/22 15:31:11;;;;;;;;;;;20.40;1.00;;;;;;6196641;23;20314;-83
2023/02/22 15:33:37;;;;;;;;;;;20.20;1.00;;;;;;6195605;23;19913;-82
2023/02/22 15:36:02;;;;;;;;;;;20.00;1.00;;;;;;6195579;23;20360;-82
2023/02/22 15:38:28;;;;;;;;;;;19.90;1.00;;;;;;6095464;23;19920;-82
2023/02/22 15:41:01;;;;;;;;;;;19.70;84.20;;;;;;6095495;23;19945;-83
2023/02/22 15:43:31;;;;;;;;;;;19.60;87.70;;;;;;6095124;23;19909;-82
2023/02/22 15:45:57;;;;;;;;;;;19.50;93.20;;;;;;6196070;23;19910;-83
2023/02/22 15:48:25;;;;;;;;;;;19.30;92.80;;;;;;6195888;23;19913;-83
2023/02/22 15:51:17;;;;;;;;;;;19.20;93.30;;;;;;6219288;23;19936;-81
2023/02/22 15:53:44;;;;;;;;;;;19.10;97.60;;;;;;6192079;23;20329;-83
2023/02/22 15:56:22;;;;;;;;;;;19.00;99.90;;;;;;6195393;23;19937;-82
2023/02/22 15:58:48;;;;;;;;;;;18.80;99.90;;;;;;6195660;23;20336;-82
2023/02/22 16:01:17;;;;;;;;;;;18.50;99.90;;;;;;6220282;23;19906;-82
2023/02/22 16:03:51;;;;;;;;;;;18.20;99.90;;;;;;6195205;23;19915;-82
2023/02/22 16:06:27;;;;;;;;;;;18.00;99.90;;;;;;6194810;23;19944;-81
2023/02/22 16:08:53;;;;;;;;;;;17.70;99.90;;;;;;6195549;23;19905;-85
2023/02/22 16:11:28;;;;;;;;;;;17.60;99.90;;;;;;6193990;23;19906;-83
2023/02/22 16:13:56;;;;;;;;;;;17.50;99.90;;;;;;6093444;23;19944;-83
2023/02/22 16:16:26;;;;;;;;;;;17.50;99.90;;;;;;6094378;23;20313;-84
2023/02/22 16:18:51;;;;;;;;;;;17.40;99.90;;;;;;6194475;23;19983;-84
2023/02/22 16:21:21;;;;;;;;;;;17.30;99.90;;;;;;6219756;23;19905;-83
2023/02/22 16:23:48;;;;;;;;;;;17.20;99.90;;;;;;6193403;23;19944;-82
2023/02/22 16:26:18;;;;;;;;;;;17.00;99.90;;;;;;6093327;23;20301;-83
2023/02/22 16:28:51;;;;;;;;;;;16.90;99.90;;;;;;6194122;23;19905;-84
2023/02/22 16:31:19;;;;;;;;;;;16.70;99.90;;;;;;6193838;23;19916;-83
2023/02/22 16:33:45;;;;;;;;;;;16.60;99.90;;;;;;6093888;23;19945;-83
2023/02/22 16:36:11;;;;;;;;;;;16.40;99.90;;;;;;6194404;23;19913;-83
2023/02/22 16:38:38;;;;;;;;;;;16.30;99.90;;;;;;6195324;23;19935;-85
2023/02/22 16:41:04;;;;;;;;;;;16.20;99.90;;;;;;6194996;23;19913;-83
2023/02/22 16:43:31;;;;;;;;;;;16.10;99.90;;;;;;6195701;23;19909;-83
2023/02/22 16:45:57;;;;;;;;;;;15.90;99.90;;;;;;6196558;23;19913;-83
2023/02/22 16:48:22;;;;;;;;;;;15.80;99.90;;;;;;6197054;23;19906;-83
2023/02/22 16:50:49;;;;;;;;;;;15.70;99.90;;;;;;6095893;23;20339;-83
2023/02/22 16:53:17;;;;;;;;;;;15.50;99.90;;;;;;6196884;23;19905;-82
2023/02/22 16:55:43;;;;;;;;;;;15.30;99.90;;;;;;6197487;23;19910;-83
2023/02/22 16:58:10;;;;;;;;;;;15.20;99.90;;;;;;6196843;23;19906;-84
2023/02/22 17:00:35;;;;;;;;;;;15.10;99.90;;;;;;6196598;23;19917;-84
2023/02/22 17:03:05;;;;;;;;;;;15.00;99.90;;;;;;6196800;23;19905;-84
2023/02/22 17:05:31;;;;;;;;;;;14.90;99.90;;;;;;6197378;23;19906;-84
2023/02/22 17:07:56;;;;;;;;;;;14.80;99.90;;;;;;6197272;23;19909;-84
2023/02/22 17:10:22;;;;;;;;;;;14.70;99.90;;;;;;6196876;23;19951;-84
2023/02/22 17:12:48;;;;;;;;;;;14.60;99.90;;;;;;6196164;23;19977;-84
2023/02/22 17:15:23;;;;;;;;;;;14.50;99.90;;;;;;6095514;23;19906;-84
2023/02/22 17:17:49;;;;;;;;;;;14.50;99.90;;;;;;6196057;23;20372;-84
2023/02/22 17:20:23;;;;;;;;;;;14.50;99.90;;;;;;6196194;23;20343;-84
2023/02/22 17:48:13;;;;;;;;;;;14.10;99.90;;;;;;6182777;23;19908;-83
2023/02/22 17:51:11;;;;;;;;;;;;;;;;;;;;;
2023/02/22 17:54:25;;;;;;;;;;;13.90;99.90;;;;;;6123721;23;20294;-82
2023/02/22 17:57:45;;;;;;;;;;;;;;;;;;;;;
2023/02/22 19:00:37;;;;;;;;;;;;;;;;;;;;;
2023/02/22 19:03:20;;;;;;;;;;;12.90;99.90;;;;;;6268537;22;19991;-81
2023/02/22 19:05:54;;;;;;;;;;;12.80;99.90;;;;;;6251826;22;20273;-81
2023/02/22 19:08:39;;;;;;;;;;;12.80;99.90;;;;;;6251684;22;19910;-81
2023/02/22 19:11:06;;;;;;;;;;;12.80;99.90;;;;;;6276940;22;19912;-82
2023/02/22 19:13:34;;;;;;;;;;;12.70;99.90;;;;;;6250762;22;19907;-81
2023/02/22 19:16:03;;;;;;;;;;;12.80;99.90;;;;;;6278732;22;19959;-81
2023/02/22 19:31:55;;;;;;;;;;;13.00;99.90;;;;;;6066294;23;19922;-82
2023/02/22 19:44:56;;;;;;;;;;;;;;;;;;;;;
2023/02/22 21:06:47;;;;;;;;;;;12.80;99.90;;;;;;6230075;23;20352;-82
2023/02/22 21:12:43;;;;;;;;;;;12.80;99.90;;;;;;6245492;23;19910;-83
2023/02/22 21:18:03;;;;;;;;;;;12.60;99.90;;;;;;6121969;23;19921;-82
2023/02/22 21:30:26;;;;;;;;;;;;;;;;;;;;;
2023/02/22 22:08:38;;;;;;;;;;;;;;;;;;;;;
2023/02/22 22:14:39;;;;;;;;;;;11.80;99.90;;;;;;6096232;23;20265;-82
2023/02/22 22:17:27;;;;;;;;;;;11.70;99.90;;;;;;6121700;23;20343;-83
2023/02/22 22:23:06;;;;;;;;;;;11.70;99.90;;;;;;6122172;23;19954;-82
2023/02/22 22:28:34;;;;;;;;;;;11.60;99.90;;;;;;6182938;23;19904;-83
2023/02/22 22:34:48;;;;;;;;;;;11.50;99.90;;;;;;6182346;23;19968;-82
2023/02/22 22:40:19;;;;;;;;;;;11.50;99.90;;;;;;6061517;23;19910;-82
2023/02/22 22:50:03;;;;;;;;;;;;;;;;;;;;;
2023/02/22 22:52:59;;;;;;;;;;;;;;;;;;;;;
2023/02/22 22:59:04;;;;;;;;;;;;;;;;;;;;;
2023/02/22 23:11:11;;;;;;;;;;;11.40;99.90;;;;;;6182773;23;20109;-82
2023/02/22 23:13:59;;;;;;;;;;;11.40;99.90;;;;;;6182486;23;19951;-82